Terminal Aerodrome Forecast
Issued by NWS

Home | Current Version | Previous Version | Text Only | Print | Product List | Glossary On
Versions: 1 2 3 4 5 6 7 8 9 10 11 12 13 14 15 16 17
699
FTUS45 KTFX 240520
TAFGTF
TAF
KGTF 240520Z 2406/2506 VRB06KT P6SM BKN070 OVC100
     FM241500 VRB04KT P6SM BKN250
     FM242100 VRB05KT P6SM SCT100
     FM250000 05009KT P6SM SCT110=

USA.gov is the U.S. government's official web portal to all federal, state and local government web resources and services.